createdAt,value
2019-03-26T00:02:01.827Z,2.80
2019-03-26T00:04:30.763Z,3.20
2019-03-26T00:06:59.643Z,2.50
2019-03-26T00:09:28.527Z,2.10
2019-03-26T00:11:57.439Z,1.93
2019-03-26T00:14:26.351Z,1.55
2019-03-26T00:16:55.262Z,2.20
2019-03-26T00:19:24.223Z,2.23
2019-03-26T00:21:53.120Z,2.20
2019-03-26T00:24:22.034Z,2.10
2019-03-26T00:26:50.935Z,2.07
2019-03-26T00:29:19.815Z,2.07
2019-03-26T00:31:48.715Z,2.33
2019-03-26T00:34:19.497Z,1.87
2019-03-26T00:36:48.114Z,1.57
2019-03-26T00:39:17.020Z,1.60
2019-03-26T00:41:45.906Z,1.50
2019-03-26T00:44:14.791Z,1.73
2019-03-26T00:46:43.692Z,1.83
2019-03-26T00:49:12.580Z,2.20
2019-03-26T00:51:41.540Z,2.40
2019-03-26T00:54:10.427Z,1.80
2019-03-26T00:56:39.315Z,1.80
2019-03-26T00:59:08.228Z,1.83
2019-03-26T01:01:37.125Z,1.93
2019-03-26T01:04:06.043Z,1.87
2019-03-26T01:06:34.944Z,1.92
2019-03-26T01:09:05.515Z,2.15
2019-03-26T01:11:34.638Z,1.80
2019-03-26T01:14:03.551Z,2.23
2019-03-26T01:16:33.143Z,1.62
2019-03-26T01:19:02.047Z,1.60
2019-03-26T01:21:30.934Z,1.60
2019-03-26T01:23:59.826Z,1.53
2019-03-26T01:26:28.855Z,1.80
2019-03-26T01:28:57.751Z,1.90
2019-03-26T01:31:26.634Z,1.53
2019-03-26T01:33:55.538Z,1.40
2019-03-26T01:36:24.422Z,1.53
2019-03-26T01:38:53.311Z,1.73
2019-03-26T01:41:22.207Z,1.70
2019-03-26T01:43:51.131Z,1.30
2019-03-26T01:46:20.119Z,2.02
2019-03-26T01:48:49.012Z,1.83
2019-03-26T01:51:17.999Z,1.80
2019-03-26T01:53:47.383Z,1.67
2019-03-26T01:56:16.267Z,1.60
2019-03-26T01:58:45.182Z,1.05
2019-03-26T02:01:14.053Z,1.80
2019-03-26T02:03:42.936Z,1.80
2019-03-26T02:06:11.840Z,1.73
2019-03-26T02:08:40.727Z,1.37
2019-03-26T02:11:09.615Z,1.37
2019-03-26T02:13:38.511Z,2.10
2019-03-26T02:16:08.272Z,1.32
2019-03-26T02:18:37.204Z,1.75
2019-03-26T02:21:06.095Z,1.67
2019-03-26T02:23:36.035Z,2.03
2019-03-26T02:26:04.934Z,1.70
2019-03-26T02:28:33.830Z,1.10
2019-03-26T02:31:02.836Z,1.87
2019-03-26T02:33:33.343Z,2.10
2019-03-26T02:36:02.224Z,1.40
2019-03-26T02:38:31.180Z,1.52
2019-03-26T02:41:00.082Z,1.80
2019-03-26T02:43:28.983Z,1.33
2019-03-26T02:45:57.941Z,1.40
2019-03-26T02:48:26.836Z,1.00
2019-03-26T02:50:55.744Z,1.97
2019-03-26T02:53:24.623Z,1.60
2019-03-26T02:55:53.505Z,1.80
2019-03-26T02:58:22.412Z,0.53
2019-03-26T03:00:51.388Z,1.30
2019-03-26T03:03:20.325Z,2.77
2019-03-26T03:05:49.244Z,2.17
2019-03-26T03:08:18.142Z,1.97
2019-03-26T03:10:48.028Z,2.15
2019-03-26T03:13:16.940Z,1.60
2019-03-26T03:15:45.823Z,1.25
2019-03-26T03:18:14.711Z,2.03
2019-03-26T03:20:43.625Z,1.33
2019-03-26T03:23:12.603Z,1.20
2019-03-26T03:25:41.560Z,1.82
2019-03-26T03:28:10.447Z,1.62
2019-03-26T03:30:39.374Z,1.90
2019-03-26T03:33:08.245Z,1.03
2019-03-26T03:35:51.162Z,1.17
2019-03-26T03:38:07.644Z,1.37
2019-03-26T03:40:36.675Z,1.65
2019-03-26T03:43:05.576Z,1.60
2019-03-26T03:45:34.956Z,1.85
2019-03-26T03:48:03.863Z,2.30
2019-03-26T03:50:33.092Z,2.17
2019-03-26T03:53:02.076Z,1.90
2019-03-26T03:55:34.715Z,2.10
2019-03-26T03:58:03.788Z,1.70
2019-03-26T04:00:33.163Z,1.95
2019-03-26T04:03:02.341Z,1.40
2019-03-26T04:05:31.221Z,1.60
2019-03-26T04:08:00.118Z,2.07
2019-03-26T04:10:29.171Z,1.70
2019-03-26T04:12:58.008Z,1.85
2019-03-26T04:15:28.504Z,1.87
2019-03-26T04:17:57.383Z,2.10
2019-03-26T04:20:26.303Z,1.60
2019-03-26T04:22:55.175Z,1.47
2019-03-26T04:25:24.060Z,1.77
2019-03-26T04:27:52.959Z,1.30
2019-03-26T04:30:27.333Z,1.67
2019-03-26T04:32:56.237Z,1.32
2019-03-26T04:35:25.115Z,1.60
2019-03-26T04:37:54.043Z,1.47
2019-03-26T04:40:22.952Z,1.57
2019-03-26T04:42:52.431Z,1.47
2019-03-26T04:45:21.390Z,1.57
2019-03-26T04:47:50.331Z,1.98
2019-03-26T04:50:19.234Z,1.63
2019-03-26T04:52:48.136Z,2.03
2019-03-26T04:55:17.033Z,1.57
2019-03-26T04:57:45.935Z,1.53
2019-03-26T05:00:15.022Z,1.60
2019-03-26T05:02:43.911Z,1.80
2019-03-26T05:05:12.815Z,1.43
2019-03-26T05:07:41.698Z,2.07
2019-03-26T05:10:10.585Z,1.43
2019-03-26T05:12:39.483Z,1.70
2019-03-26T05:15:08.791Z,2.02
2019-03-26T05:17:37.704Z,2.20
2019-03-26T05:20:07.260Z,2.05
2019-03-26T05:22:36.242Z,1.80
2019-03-26T05:25:05.737Z,1.80
2019-03-26T05:27:44.895Z,2.10
2019-03-26T05:30:05.401Z,1.90
2019-03-26T05:32:34.299Z,2.67
2019-03-26T05:35:03.182Z,2.50
2019-03-26T05:37:32.063Z,1.93
2019-03-26T05:40:01.675Z,2.00
2019-03-26T05:42:30.617Z,2.07
2019-03-26T05:44:59.499Z,2.10
2019-03-26T05:47:28.401Z,2.33
2019-03-26T05:49:57.290Z,1.90
2019-03-26T05:52:26.195Z,1.90
2019-03-26T05:54:58.310Z,2.03
2019-03-26T05:57:27.207Z,2.57
2019-03-26T05:59:56.095Z,2.35
2019-03-26T06:02:24.991Z,2.50
2019-03-26T06:04:54.284Z,3.33
2019-03-26T06:07:23.247Z,2.60
2019-03-26T06:09:52.135Z,2.37
2019-03-26T06:12:21.023Z,2.03
2019-03-26T06:14:49.927Z,1.80
2019-03-26T06:17:18.813Z,2.23
2019-03-26T06:19:47.701Z,2.47
2019-03-26T06:22:16.598Z,2.00
2019-03-26T06:24:45.479Z,2.20
2019-03-26T06:27:14.436Z,2.00
2019-03-26T06:29:43.343Z,1.93
2019-03-26T06:32:12.219Z,2.70
2019-03-26T06:34:41.103Z,1.50
2019-03-26T06:37:17.877Z,1.70
2019-03-26T06:39:40.515Z,2.07
2019-03-26T06:42:09.665Z,2.25
2019-03-26T06:44:38.544Z,1.97
2019-03-26T06:47:07.444Z,2.87
2019-03-26T06:49:36.863Z,2.73
2019-03-26T06:52:06.735Z,3.27
2019-03-26T06:54:36.327Z,2.92
2019-03-26T06:57:05.234Z,3.55
2019-03-26T06:59:34.111Z,3.27
2019-03-26T07:02:03.069Z,3.40
2019-03-26T07:04:31.971Z,3.93
2019-03-26T07:07:00.855Z,3.40
2019-03-26T07:09:29.747Z,4.20
2019-03-26T07:11:58.669Z,3.37
2019-03-26T07:14:27.547Z,4.03
2019-03-26T07:16:56.443Z,3.70
2019-03-26T07:19:25.423Z,3.73
2019-03-26T07:21:54.323Z,4.03
2019-03-26T07:24:23.206Z,4.17
2019-03-26T07:26:52.091Z,4.33
2019-03-26T07:29:21.048Z,3.63
2019-03-26T07:31:49.895Z,3.70
2019-03-26T07:34:18.786Z,4.53
2019-03-26T07:36:47.687Z,3.53
2019-03-26T07:39:16.637Z,3.97
2019-03-26T07:41:45.520Z,3.67
2019-03-26T07:44:14.403Z,3.73
2019-03-26T07:46:43.303Z,3.40
2019-03-26T07:49:12.208Z,3.40
2019-03-26T07:51:41.094Z,4.23
2019-03-26T07:54:09.990Z,3.37
2019-03-26T07:56:40.428Z,3.60
2019-03-26T07:59:09.338Z,3.50
2019-03-26T08:01:38.219Z,3.37
2019-03-26T08:04:08.178Z,3.37
2019-03-26T08:06:37.099Z,3.30
2019-03-26T08:09:06.707Z,3.08
2019-03-26T08:11:35.625Z,3.22
2019-03-26T08:14:04.728Z,2.73
2019-03-26T08:16:33.627Z,3.43
2019-03-26T08:19:02.503Z,3.25
2019-03-26T08:21:31.388Z,3.45
2019-03-26T08:24:00.287Z,2.73
2019-03-26T08:26:29.175Z,2.23
2019-03-26T08:29:00.894Z,2.47
2019-03-26T08:31:28.702Z,1.75
2019-03-26T08:33:57.589Z,2.37
2019-03-26T08:36:26.469Z,1.77
2019-03-26T08:38:55.583Z,2.80
2019-03-26T08:41:24.449Z,2.25
2019-03-26T08:43:53.339Z,2.83
2019-03-26T08:46:22.242Z,2.40
2019-03-26T08:48:51.131Z,2.07
2019-03-26T08:51:20.027Z,2.13
2019-03-26T08:53:48.915Z,2.63
2019-03-26T08:56:17.791Z,2.33
2019-03-26T08:58:46.691Z,2.00
2019-03-26T09:01:15.586Z,2.13
2019-03-26T09:03:44.477Z,2.10
2019-03-26T09:06:13.367Z,2.60
2019-03-26T09:08:42.270Z,1.53
2019-03-26T09:11:11.155Z,2.57
2019-03-26T09:13:40.050Z,2.37
2019-03-26T09:16:08.931Z,1.90
2019-03-26T09:18:37.851Z,2.03
2019-03-26T09:21:06.739Z,2.27
2019-03-26T09:23:35.618Z,3.02
2019-03-26T09:26:04.530Z,2.30
2019-03-26T09:28:33.420Z,2.33
2019-03-26T09:31:03.268Z,2.50
2019-03-26T09:33:32.775Z,2.05
2019-03-26T09:36:01.667Z,2.90
2019-03-26T09:38:38.811Z,2.98
2019-03-26T09:41:01.679Z,2.35
2019-03-26T09:43:30.555Z,1.27
2019-03-26T09:46:00.445Z,2.25
2019-03-26T09:48:29.318Z,2.83
2019-03-26T09:50:58.202Z,2.00
2019-03-26T09:53:27.766Z,1.90
2019-03-26T09:55:56.660Z,2.67
2019-03-26T09:58:25.540Z,2.70
2019-03-26T10:00:54.459Z,2.40
2019-03-26T10:03:23.335Z,2.30
2019-03-26T10:05:52.217Z,2.43
2019-03-26T10:08:21.120Z,2.85
2019-03-26T10:10:50.015Z,2.95
2019-03-26T10:13:18.927Z,2.20
2019-03-26T10:15:47.783Z,2.70
2019-03-26T10:18:16.696Z,2.10
2019-03-26T10:20:45.651Z,3.20
2019-03-26T10:23:14.547Z,2.70
2019-03-26T10:25:43.451Z,2.57
2019-03-26T10:28:12.327Z,2.40
2019-03-26T10:30:41.228Z,2.50
2019-03-26T10:33:10.119Z,2.20
2019-03-26T10:35:39.258Z,2.42
2019-03-26T10:38:08.228Z,2.00
2019-03-26T10:40:37.277Z,2.25
2019-03-26T10:43:06.274Z,1.53
2019-03-26T10:45:35.159Z,1.80
2019-03-26T10:48:04.302Z,1.32
2019-03-26T10:50:33.211Z,1.87
2019-03-26T10:53:02.162Z,2.03
2019-03-26T10:55:32.127Z,2.10
2019-03-26T10:58:01.039Z,2.20
2019-03-26T11:00:29.947Z,1.50
2019-03-26T11:02:58.835Z,2.03
2019-03-26T11:05:27.743Z,1.00
2019-03-26T11:07:56.659Z,1.73
2019-03-26T11:10:25.554Z,1.80
2019-03-26T11:12:54.435Z,2.15
2019-03-26T11:15:23.330Z,1.55
2019-03-26T11:17:52.211Z,2.00
2019-03-26T11:20:21.179Z,1.90
2019-03-26T11:22:51.276Z,2.90
2019-03-26T11:25:20.205Z,2.40
2019-03-26T11:27:49.047Z,1.77
2019-03-26T11:30:17.948Z,2.08
2019-03-26T11:32:46.826Z,2.08
2019-03-26T11:35:15.745Z,1.85
2019-03-26T11:37:44.619Z,1.87
2019-03-26T11:40:13.706Z,2.03
2019-03-26T11:42:42.678Z,1.80
2019-03-26T11:45:11.881Z,1.70
2019-03-26T11:47:40.779Z,1.92
2019-03-26T11:50:09.810Z,1.72
2019-03-26T11:52:38.727Z,1.87
2019-03-26T11:55:07.833Z,1.67
2019-03-26T11:57:36.743Z,1.50
2019-03-26T12:00:06.767Z,2.00
2019-03-26T12:02:36.388Z,1.30
2019-03-26T12:05:05.635Z,1.40
2019-03-26T12:07:34.539Z,2.13
2019-03-26T12:10:03.483Z,2.70
2019-03-26T12:12:32.370Z,1.40
2019-03-26T12:15:01.507Z,2.63
2019-03-26T12:17:30.847Z,1.90
2019-03-26T12:19:59.727Z,1.42
2019-03-26T12:22:31.306Z,2.12
2019-03-26T12:24:59.676Z,1.98
2019-03-26T12:27:28.574Z,2.12
2019-03-26T12:29:57.481Z,1.70
2019-03-26T12:32:26.372Z,1.57
2019-03-26T12:34:55.256Z,1.60
2019-03-26T12:37:24.324Z,2.00
2019-03-26T12:39:59.414Z,2.67
2019-03-26T12:42:24.685Z,1.92
2019-03-26T12:44:53.582Z,2.45
2019-03-26T12:47:22.544Z,1.75
2019-03-26T12:49:51.429Z,2.27
2019-03-26T12:52:20.408Z,2.53
2019-03-26T12:54:49.685Z,2.33
2019-03-26T12:57:18.619Z,2.00
2019-03-26T12:59:47.499Z,3.02
2019-03-26T13:02:16.453Z,2.27
2019-03-26T13:04:45.356Z,2.77
2019-03-26T13:07:14.284Z,2.83
2019-03-26T13:09:43.163Z,2.73
2019-03-26T13:12:12.112Z,2.03
2019-03-26T13:14:41.008Z,2.40
2019-03-26T13:17:09.893Z,3.23
2019-03-26T13:19:38.813Z,2.20
2019-03-26T13:22:07.746Z,2.40
2019-03-26T13:24:36.630Z,2.00
2019-03-26T13:27:05.522Z,2.53
2019-03-26T13:29:34.427Z,2.33
2019-03-26T13:32:03.323Z,2.30
2019-03-26T13:34:32.203Z,1.60
2019-03-26T13:37:01.092Z,2.00
2019-03-26T13:39:30.055Z,2.87
2019-03-26T13:41:58.899Z,2.83
2019-03-26T13:44:27.809Z,2.15
2019-03-26T13:46:56.670Z,2.40
2019-03-26T13:49:25.568Z,2.00
2019-03-26T13:51:54.472Z,3.03
2019-03-26T13:54:23.351Z,2.40
2019-03-26T13:56:52.940Z,2.70
2019-03-26T13:59:21.840Z,2.50
2019-03-26T14:01:50.711Z,2.50
2019-03-26T14:04:19.539Z,2.40
2019-03-26T14:06:48.378Z,2.17
2019-03-26T14:09:17.283Z,2.43
2019-03-26T14:11:46.154Z,2.80
2019-03-26T14:14:15.051Z,2.80
2019-03-26T14:16:44.082Z,2.40
2019-03-26T14:19:12.979Z,2.47
2019-03-26T14:21:41.866Z,2.53
2019-03-26T14:24:13.328Z,1.17
2019-03-26T14:26:41.262Z,2.93
2019-03-26T14:29:10.396Z,2.85
2019-03-26T14:31:39.299Z,2.37
2019-03-26T14:34:08.183Z,2.92
2019-03-26T14:36:37.095Z,2.43
2019-03-26T14:39:07.992Z,2.50
2019-03-26T14:41:37.139Z,3.17
2019-03-26T14:44:06.026Z,3.13
2019-03-26T14:46:34.919Z,2.42
2019-03-26T14:49:03.835Z,3.10
2019-03-26T14:51:32.727Z,2.37
2019-03-26T14:54:01.607Z,2.60
2019-03-26T14:56:30.527Z,2.83
2019-03-26T14:58:59.406Z,2.87
2019-03-26T15:01:28.288Z,2.37
2019-03-26T15:03:57.251Z,3.30
2019-03-26T15:06:26.143Z,2.50
2019-03-26T15:08:55.051Z,2.50
2019-03-26T15:11:23.938Z,2.37
2019-03-26T15:13:52.850Z,4.12
2019-03-26T15:16:21.759Z,2.83
2019-03-26T15:18:50.647Z,1.47
2019-03-26T15:21:19.539Z,2.43
2019-03-26T15:23:48.447Z,3.10
2019-03-26T15:26:17.362Z,3.07
2019-03-26T15:28:46.247Z,3.65
2019-03-26T15:31:15.131Z,2.80
2019-03-26T15:33:44.323Z,3.40
2019-03-26T15:36:13.227Z,3.23
2019-03-26T15:38:42.267Z,2.15
2019-03-26T15:41:21.454Z,3.37
2019-03-26T15:43:42.782Z,2.95
2019-03-26T15:46:11.701Z,3.80
2019-03-26T15:48:40.563Z,3.47
2019-03-26T15:51:09.447Z,4.20
2019-03-26T15:53:38.327Z,5.10
2019-03-26T15:56:07.231Z,4.70
2019-03-26T15:58:36.112Z,3.22
2019-03-26T16:01:05.347Z,3.85
2019-03-26T16:03:34.332Z,4.27
2019-03-26T16:06:03.304Z,5.03
2019-03-26T16:08:32.116Z,4.53
2019-03-26T16:11:01.101Z,5.67
2019-03-26T16:13:30.015Z,5.78
2019-03-26T16:15:58.902Z,4.47
2019-03-26T16:18:27.782Z,5.70
2019-03-26T16:20:56.655Z,6.23
2019-03-26T16:23:25.535Z,5.27
2019-03-26T16:25:54.451Z,4.23
2019-03-26T16:28:23.323Z,3.07
2019-03-26T16:30:52.207Z,4.87
2019-03-26T16:33:22.086Z,4.80
2019-03-26T16:35:50.962Z,4.10
2019-03-26T16:38:19.847Z,3.77
2019-03-26T16:40:49.225Z,2.75
2019-03-26T16:43:19.192Z,5.45
2019-03-26T16:45:48.095Z,2.33
2019-03-26T16:48:17.007Z,5.50
2019-03-26T16:50:45.901Z,5.50
2019-03-26T16:53:15.357Z,5.50
2019-03-26T16:55:44.263Z,4.97
2019-03-26T16:58:13.147Z,5.35
2019-03-26T17:00:42.033Z,3.47
2019-03-26T17:03:10.932Z,6.50
2019-03-26T17:05:39.906Z,6.07
2019-03-26T17:08:08.811Z,5.90
2019-03-26T17:10:37.695Z,6.07
2019-03-26T17:13:06.703Z,4.67
2019-03-26T17:15:35.597Z,5.40
2019-03-26T17:18:04.771Z,5.45
2019-03-26T17:20:33.703Z,5.10
2019-03-26T17:23:02.591Z,5.90
2019-03-26T17:25:31.556Z,5.27
2019-03-26T17:28:00.481Z,3.83
2019-03-26T17:30:29.402Z,6.53
2019-03-26T17:32:58.275Z,6.90
2019-03-26T17:35:27.207Z,5.80
2019-03-26T17:37:59.889Z,5.47
2019-03-26T17:40:27.655Z,5.40
2019-03-26T17:42:56.539Z,6.60
2019-03-26T17:45:25.535Z,6.03
2019-03-26T17:47:54.431Z,5.83
2019-03-26T17:50:24.328Z,5.87
2019-03-26T17:52:53.231Z,6.40
2019-03-26T17:55:22.431Z,6.03
2019-03-26T17:57:52.283Z,6.53
2019-03-26T18:00:25.782Z,5.95
2019-03-26T18:02:54.792Z,5.53
2019-03-26T18:05:24.471Z,6.00
2019-03-26T18:07:53.378Z,6.20
2019-03-26T18:10:22.264Z,4.60
2019-03-26T18:12:51.167Z,6.57
2019-03-26T18:15:21.061Z,6.50
2019-03-26T18:17:49.990Z,6.57
2019-03-26T18:20:31.958Z,5.40
2019-03-26T18:22:50.112Z,5.23
2019-03-26T18:25:18.999Z,5.30
2019-03-26T18:27:47.950Z,5.47
2019-03-26T18:30:16.860Z,5.77
2019-03-26T18:32:45.747Z,6.00
2019-03-26T18:35:14.635Z,4.67
2019-03-26T18:37:43.594Z,5.65
2019-03-26T18:40:12.579Z,5.57
2019-03-26T18:42:44.359Z,5.53
2019-03-26T18:45:12.100Z,5.58
2019-03-26T18:47:41.078Z,5.40
2019-03-26T18:50:10.111Z,4.40
2019-03-26T18:52:39.058Z,4.30
2019-03-26T18:55:08.191Z,5.12
2019-03-26T18:57:38.859Z,6.80
2019-03-26T19:00:08.491Z,6.78
2019-03-26T19:02:37.891Z,6.00
2019-03-26T19:05:08.614Z,6.67
2019-03-26T19:07:37.503Z,7.05
2019-03-26T19:10:07.887Z,6.83
2019-03-26T19:12:36.792Z,6.62
2019-03-26T19:15:05.707Z,6.73
2019-03-26T19:17:34.691Z,5.67
2019-03-26T19:20:04.343Z,5.95
2019-03-26T19:22:33.234Z,6.20
2019-03-26T19:25:02.141Z,6.12
2019-03-26T19:27:31.015Z,6.07
2019-03-26T19:29:59.921Z,6.37
2019-03-26T19:32:28.796Z,7.50
2019-03-26T19:34:57.699Z,6.63
2019-03-26T19:37:26.562Z,7.27
2019-03-26T19:39:55.447Z,7.23
2019-03-26T19:42:24.340Z,5.10
2019-03-26T19:44:53.267Z,7.90
2019-03-26T19:47:22.159Z,6.87
2019-03-26T19:49:51.051Z,6.70
2019-03-26T19:52:19.971Z,7.03
2019-03-26T19:54:48.871Z,6.72
2019-03-26T19:57:17.771Z,6.47
2019-03-26T19:59:46.735Z,6.87
2019-03-26T20:02:15.611Z,8.07
2019-03-26T20:04:44.515Z,5.50
2019-03-26T20:07:14.107Z,6.55
2019-03-26T20:09:43.011Z,6.28
2019-03-26T20:12:11.904Z,5.90
2019-03-26T20:14:40.812Z,6.03
2019-03-26T20:17:09.694Z,5.10
2019-03-26T20:19:38.580Z,6.30
2019-03-26T20:22:07.483Z,5.40
2019-03-26T20:24:36.371Z,6.30
2019-03-26T20:27:05.255Z,5.73
2019-03-26T20:29:34.182Z,5.25
2019-03-26T20:32:03.083Z,5.67
2019-03-26T20:34:32.037Z,6.00
2019-03-26T20:37:00.921Z,5.73
2019-03-26T20:39:29.892Z,4.90
2019-03-26T20:41:58.793Z,5.00
2019-03-26T20:44:27.739Z,4.90
2019-03-26T20:46:56.651Z,5.20
2019-03-26T20:49:25.523Z,5.37
2019-03-26T20:51:54.420Z,5.57
2019-03-26T20:54:23.502Z,4.75
2019-03-26T20:56:52.392Z,3.83
2019-03-26T20:59:21.274Z,5.47
2019-03-26T21:01:50.175Z,4.87
2019-03-26T21:04:19.068Z,4.55
2019-03-26T21:06:48.171Z,5.58
2019-03-26T21:09:17.062Z,4.37
2019-03-26T21:11:46.126Z,5.20
2019-03-26T21:14:15.467Z,5.75
2019-03-26T21:16:44.347Z,6.03
2019-03-26T21:19:13.275Z,5.92
2019-03-26T21:21:42.155Z,6.73
2019-03-26T21:24:11.155Z,5.57
2019-03-26T21:26:40.051Z,6.13
2019-03-26T21:29:09.910Z,5.47
2019-03-26T21:31:38.813Z,5.83
2019-03-26T21:34:07.715Z,6.30
2019-03-26T21:36:36.947Z,5.65
2019-03-26T21:39:06.503Z,5.90
2019-03-26T21:41:36.159Z,5.28
2019-03-26T21:44:05.091Z,5.03
2019-03-26T21:46:34.937Z,5.55
2019-03-26T21:49:03.824Z,5.80
2019-03-26T21:51:32.731Z,5.10
2019-03-26T21:54:01.603Z,6.60
2019-03-26T21:56:31.071Z,5.63
2019-03-26T21:58:59.972Z,5.30
2019-03-26T22:01:29.371Z,5.60
2019-03-26T22:03:58.287Z,5.45
2019-03-26T22:06:27.279Z,5.70
2019-03-26T22:08:56.166Z,5.30
2019-03-26T22:11:25.059Z,6.07
2019-03-26T22:13:53.951Z,4.70
2019-03-26T22:16:22.918Z,5.83
2019-03-26T22:18:51.839Z,4.83
2019-03-26T22:21:20.728Z,4.75
2019-03-26T22:23:49.620Z,4.78
2019-03-26T22:26:18.543Z,5.00
2019-03-26T22:28:47.439Z,5.30
2019-03-26T22:31:16.344Z,5.53
2019-03-26T22:33:45.256Z,4.77
2019-03-26T22:36:14.155Z,4.57
2019-03-26T22:38:43.068Z,5.67
2019-03-26T22:41:11.951Z,4.77
2019-03-26T22:43:40.847Z,7.50
2019-03-26T22:46:09.835Z,5.07
2019-03-26T22:48:38.735Z,5.03
2019-03-26T22:51:08.588Z,4.90
2019-03-26T22:53:38.107Z,4.72
2019-03-26T22:56:06.991Z,4.40
2019-03-26T22:58:35.875Z,4.10
2019-03-26T23:01:04.815Z,4.27
2019-03-26T23:03:33.863Z,4.97
2019-03-26T23:06:02.749Z,5.33
2019-03-26T23:08:31.655Z,4.27
2019-03-26T23:11:00.614Z,5.07
2019-03-26T23:13:29.644Z,4.25
2019-03-26T23:15:58.625Z,4.70
2019-03-26T23:18:27.502Z,5.00
2019-03-26T23:20:56.395Z,5.37
2019-03-26T23:23:25.940Z,5.03
2019-03-26T23:25:54.928Z,5.47
2019-03-26T23:28:23.878Z,5.07
2019-03-26T23:30:52.859Z,5.60
2019-03-26T23:33:21.815Z,5.55
2019-03-26T23:35:50.705Z,5.42
2019-03-26T23:38:19.679Z,4.73
2019-03-26T23:40:48.563Z,5.13
2019-03-26T23:43:17.463Z,5.50
2019-03-26T23:45:46.355Z,5.50
2019-03-26T23:48:15.247Z,4.63
2019-03-26T23:50:44.139Z,4.10
2019-03-26T23:53:13.027Z,4.60
2019-03-26T23:55:41.942Z,5.00
2019-03-26T23:58:10.835Z,4.87
